Time;durP1;ratioP1;P1;durP2;ratioP2;P2;SDS_P1;SDS_P2;PMS_P1;PMS_P2;Temp;Humidity;BMP_temperature;BMP_pressure;BME280_temperature;BME280_humidity;BME280_pressure;Samples;Min_cycle;Max_cycle;Signal;HPM_P1;HPM_P2
2023/10/16 00:00:40;;;;;;;1.05;1.00;;;;;;;12.44;59.65;94794.19;5003657;28;20202;-74
2023/10/16 00:03:08;;;;;;;1.38;1.27;;;;;;;12.42;59.81;94790.22;5019572;28;20663;-72
2023/10/16 00:05:45;;;;;;;1.02;1.02;;;;;;;12.47;59.89;94789.88;5001636;28;20227;-72
2023/10/16 00:08:16;;;;;;;1.00;1.00;;;;;;;12.47;59.15;94801.75;5018123;28;20191;-72
2023/10/16 00:10:56;;;;;;;1.05;1.05;;;;;;;12.47;58.94;94800.94;5017806;28;20187;-72
2023/10/16 00:13:26;;;;;;;1.10;1.10;;;;;;;12.46;58.64;94805.69;5001263;28;20265;-70
2023/10/16 00:15:55;;;;;;;1.17;1.17;;;;;;;12.44;58.99;94816.31;5001420;28;20191;-70
2023/10/16 00:18:24;;;;;;;1.00;1.00;;;;;;;12.45;58.52;94820.66;5018133;28;20289;-70
2023/10/16 00:20:51;;;;;;;1.00;1.00;;;;;;;12.42;58.83;94815.91;5000863;28;20195;-70
2023/10/16 00:23:18;;;;;;;1.00;1.00;;;;;;;12.44;58.53;94819.09;5000473;28;20261;-70
2023/10/16 00:25:46;;;;;;;1.00;1.00;;;;;;;12.37;58.43;94824.50;5000413;28;20211;-70
2023/10/16 00:28:15;;;;;;;1.80;1.20;;;;;;;12.30;58.62;94824.38;5000686;28;20199;-70
2023/10/16 00:30:43;;;;;;;1.10;1.10;;;;;;;12.34;58.81;94829.97;5000978;28;20274;-70
2023/10/16 00:33:11;;;;;;;1.10;1.10;;;;;;;12.28;58.67;94846.88;4999975;28;20225;-70
2023/10/16 00:35:38;;;;;;;1.27;1.27;;;;;;;12.29;58.75;94848.47;5017458;28;20218;-70
2023/10/16 00:38:12;;;;;;;1.08;1.08;;;;;;;12.28;58.34;94851.63;5017132;28;20193;-70
2023/10/16 00:40:40;;;;;;;1.30;1.20;;;;;;;12.30;58.58;94857.56;5000683;28;20533;-70
2023/10/16 00:43:11;;;;;;;1.10;1.10;;;;;;;12.30;58.45;94857.56;5000169;28;20245;-70
2023/10/16 00:45:46;;;;;;;1.10;1.10;;;;;;;12.27;58.12;94859.13;4999854;28;20270;-70
2023/10/16 00:48:17;;;;;;;1.30;1.20;;;;;;;12.19;58.44;94868.44;5000410;28;20202;-70
2023/10/16 00:50:45;;;;;;;1.73;1.63;;;;;;;12.10;58.53;94861.56;5000720;28;20274;-70
2023/10/16 00:53:13;;;;;;;1.60;1.50;;;;;;;12.07;58.51;94846.50;5000147;28;20226;-70
2023/10/16 00:55:42;;;;;;;1.45;1.45;;;;;;;12.03;58.67;94843.69;5016973;28;20239;-70
2023/10/16 00:58:09;;;;;;;1.65;1.55;;;;;;;12.01;58.87;94854.28;5000437;28;20241;-70
2023/10/16 01:00:38;;;;;;;1.73;1.63;;;;;;;12.02;58.77;94855.91;5000674;28;20237;-71
2023/10/16 01:03:05;;;;;;;2.00;1.80;;;;;;;11.97;59.08;94870.00;4999755;28;20203;-70
2023/10/16 01:05:39;;;;;;;2.10;2.00;;;;;;;11.97;59.23;94881.06;5017084;28;20191;-70
2023/10/16 01:08:09;;;;;;;2.10;2.00;;;;;;;11.95;58.68;94875.13;4999947;28;20521;-70
2023/10/16 01:10:40;;;;;;;2.83;2.63;;;;;;;11.88;59.05;94901.84;4999914;28;20214;-71
2023/10/16 01:13:12;;;;;;;3.00;2.80;;;;;;;11.87;59.27;94883.63;5000353;28;20243;-71
2023/10/16 01:15:43;;;;;;;2.38;2.28;;;;;;;11.80;59.61;94871.28;4999803;28;20203;-71
2023/10/16 01:18:13;;;;;;;2.88;2.67;;;;;;;11.78;59.50;94879.09;4999472;28;20199;-70
2023/10/16 01:20:46;;;;;;;2.90;2.70;;;;;;;11.78;59.38;94890.16;4999443;28;20203;-70
2023/10/16 01:23:19;;;;;;;2.95;2.70;;;;;;;11.72;59.77;94901.88;4999612;28;20306;-70
2023/10/16 01:25:48;;;;;;;2.97;2.78;;;;;;;11.66;59.58;94922.69;4999752;28;20203;-70
2023/10/16 01:28:17;;;;;;;2.95;2.85;;;;;;;11.66;60.18;94923.47;4999896;28;20253;-70
2023/10/16 01:30:45;;;;;;;3.20;3.00;;;;;;;11.62;60.01;94919.84;5000137;28;20198;-71
2023/10/16 01:33:13;;;;;;;3.75;3.50;;;;;;;11.66;60.12;94911.63;5000012;28;20196;-72
2023/10/16 01:35:40;;;;;;;3.40;3.20;;;;;;;11.69;59.92;94925.50;4999958;28;20205;-72
2023/10/16 01:38:14;;;;;;;3.33;3.13;;;;;;;11.77;60.02;94926.47;4999450;28;20341;-72
2023/10/16 01:41:02;;;;;;;3.63;3.42;;;;;;;11.74;60.06;94938.22;5016923;28;20187;-72
2023/10/16 01:43:32;;;;;;;3.85;3.65;;;;;;;11.66;60.02;94937.28;4999668;28;20195;-72
2023/10/16 01:46:02;;;;;;;3.75;3.42;;;;;;;11.56;60.27;94940.63;4999056;28;20227;-72
2023/10/16 01:48:32;;;;;;;4.25;3.95;;;;;;;11.51;60.70;94929.84;4999796;28;20191;-71
2023/10/16 01:51:01;;;;;;;4.32;4.03;;;;;;;11.46;60.80;94947.50;4998891;28;20218;-71
2023/10/16 01:53:33;;;;;;;4.90;4.50;;;;;;;11.44;61.14;94943.53;5015987;28;20219;-71
2023/10/16 01:56:12;;;;;;;4.63;4.32;;;;;;;11.43;61.31;94945.47;4994667;28;20553;-71
2023/10/16 01:58:41;;;;;;;4.93;4.53;;;;;;;11.47;61.08;94951.84;4996206;28;20725;-71
2023/10/16 02:01:09;;;;;;;4.25;3.95;;;;;;;11.49;60.74;94966.13;4995053;28;20200;-71
2023/10/16 02:03:36;;;;;;;4.50;4.13;;;;;;;11.46;60.84;94971.56;4995948;28;20209;-70
2023/10/16 02:06:03;;;;;;;4.30;4.00;;;;;;;11.43;60.38;94977.81;4995530;28;20304;-71
2023/10/16 02:08:30;;;;;;;3.80;3.50;;;;;;;11.39;59.36;94979.69;4995393;28;20203;-70
2023/10/16 02:10:58;;;;;;;3.47;3.22;;;;;;;11.31;58.34;94968.47;4995307;28;20298;-70
2023/10/16 02:13:30;;;;;;;3.75;3.45;;;;;;;11.32;58.65;94955.47;4995525;28;20227;-70
2023/10/16 02:16:00;;;;;;;3.90;3.50;;;;;;;11.38;58.45;94969.81;4995977;28;20195;-70
2023/10/16 02:18:33;;;;;;;3.45;3.25;;;;;;;11.34;57.67;94966.97;4995712;28;20271;-70
2023/10/16 02:21:00;;;;;;;3.78;3.58;;;;;;;11.37;57.66;94970.97;4995136;28;20291;-70
2023/10/16 02:23:30;;;;;;;3.70;3.42;;;;;;;11.38;57.69;94969.81;4995250;28;20200;-70
2023/10/16 02:26:01;;;;;;;4.60;4.20;;;;;;;11.35;57.74;94965.00;4995104;28;20201;-70
2023/10/16 02:28:31;;;;;;;4.05;3.75;;;;;;;11.38;57.59;94976.13;4995390;28;20200;-70
2023/10/16 02:31:00;;;;;;;4.00;3.70;;;;;;;11.35;57.24;94974.09;4996112;28;20209;-70
2023/10/16 02:33:28;;;;;;;3.97;3.67;;;;;;;11.38;57.22;94978.09;4995703;28;20208;-70
2023/10/16 02:35:57;;;;;;;3.92;3.50;;;;;;;11.42;56.96;94987.25;4995894;28;20188;-70
2023/10/16 02:38:29;;;;;;;3.90;3.60;;;;;;;11.42;57.31;94982.53;4995680;28;20626;-71
2023/10/16 02:41:00;;;;;;;4.07;3.72;;;;;;;11.42;56.61;94990.81;4994856;28;20196;-70
2023/10/16 02:43:29;;;;;;;3.78;3.50;;;;;;;11.38;56.85;94995.47;4995529;28;20565;-70
2023/10/16 02:45:56;;;;;;;3.90;3.60;;;;;;;11.33;56.42;94990.22;4995198;28;20254;-71
2023/10/16 02:48:24;;;;;;;4.68;3.70;;;;;;;11.29;56.53;94995.66;4995133;28;20204;-71
2023/10/16 02:50:54;;;;;;;3.78;3.58;;;;;;;11.28;56.42;94998.78;4995942;28;20204;-71
2023/10/16 02:53:22;;;;;;;3.90;3.65;;;;;;;11.25;55.87;94994.75;4995264;28;20297;-72
2023/10/16 02:55:57;;;;;;;4.00;3.60;;;;;;;11.23;55.94;95004.59;4994834;28;20236;-72
2023/10/16 02:58:42;;;;;;;3.70;3.40;;;;;;;11.17;56.13;95009.56;4995226;28;20257;-72
2023/10/16 03:01:13;;;;;;;3.90;3.55;;;;;;;11.18;56.14;95013.91;4994832;28;20257;-73
2023/10/16 03:03:43;;;;;;;3.40;3.20;;;;;;;11.12;55.98;95009.06;4995009;28;20200;-73
2023/10/16 03:06:10;;;;;;;4.45;4.15;;;;;;;11.11;56.09;95016.53;4997411;28;20564;-72
2023/10/16 03:08:37;;;;;;;5.28;4.18;;;;;;;11.14;56.18;95020.53;4999631;28;20187;-71
2023/10/16 03:11:06;;;;;;;4.50;4.20;;;;;;;11.15;55.86;95022.09;4999187;28;20195;-70
2023/10/16 03:13:35;;;;;;;4.80;4.40;;;;;;;11.16;55.84;95030.06;4998504;28;20219;-70
2023/10/16 03:16:07;;;;;;;4.30;4.00;;;;;;;11.14;55.74;95029.59;4998833;28;20200;-70
2023/10/16 03:18:35;;;;;;;3.70;3.50;;;;;;;11.09;55.85;95032.63;4999066;28;20203;-70
2023/10/16 03:21:26;;;;;;;3.70;3.50;;;;;;;11.11;55.84;95040.53;4998893;28;20213;-70
2023/10/16 03:23:53;;;;;;;3.97;3.67;;;;;;;11.08;55.78;95040.13;4998948;28;20210;-70
2023/10/16 03:26:25;;;;;;;4.15;3.83;;;;;;;11.02;55.84;95033.25;4998596;28;20292;-70
2023/10/16 03:28:52;;;;;;;3.72;3.47;;;;;;;10.97;55.81;95039.06;4998230;28;20254;-70
2023/10/16 03:31:20;;;;;;;3.97;3.67;;;;;;;10.93;56.05;95026.31;4998254;28;20531;-71
2023/10/16 03:33:47;;;;;;;4.00;3.80;;;;;;;10.91;56.41;95026.69;4998386;28;20204;-69
2023/10/16 03:36:15;;;;;;;4.30;4.00;;;;;;;10.93;56.34;95035.41;4998445;28;20204;-69
2023/10/16 03:38:42;;;;;;;4.55;4.25;;;;;;;10.91;56.34;95036.91;4998884;28;20303;-69
2023/10/16 03:41:19;;;;;;;4.90;4.50;;;;;;;10.84;56.42;95041.09;4999316;28;20279;-68
2023/10/16 03:43:45;;;;;;;4.53;4.13;;;;;;;10.87;56.48;95052.59;4998822;28;20203;-68
2023/10/16 03:46:13;;;;;;;4.40;4.10;;;;;;;10.94;56.61;95050.00;4998263;28;20203;-68
2023/10/16 03:48:44;;;;;;;4.80;4.47;;;;;;;10.90;56.22;95051.88;4998424;28;20215;-69
2023/10/16 03:51:16;;;;;;;4.78;4.40;;;;;;;10.93;55.92;95064.94;4998835;28;20254;-69
2023/10/16 03:53:44;;;;;;;5.82;4.50;;;;;;;10.89;56.10;95064.03;4998364;28;20211;-68
2023/10/16 03:56:13;;;;;;;5.10;4.70;;;;;;;10.83;55.87;95055.25;4997141;28;20902;-70
2023/10/16 03:58:42;;;;;;;4.78;4.47;;;;;;;10.74;56.25;95058.16;4998148;28;20234;-68
2023/10/16 04:01:10;;;;;;;4.45;4.15;;;;;;;10.71;56.31;95053.38;4998124;28;20206;-67
2023/10/16 04:03:47;;;;;;;4.70;4.30;;;;;;;10.71;56.24;95041.50;4997403;28;20204;-67
2023/10/16 04:06:19;;;;;;;4.95;4.45;;;;;;;10.68;56.45;95033.97;4998193;28;20219;-67
2023/10/16 04:08:46;;;;;;;4.60;4.20;;;;;;;10.70;56.10;95042.69;4997977;28;20203;-67
2023/10/16 04:11:13;;;;;;;4.68;4.28;;;;;;;10.68;56.00;95059.59;4997238;28;20203;-67
2023/10/16 04:13:47;;;;;;;4.97;4.57;;;;;;;10.67;56.12;95071.75;4998449;28;20212;-67
2023/10/16 04:16:30;;;;;;;4.32;4.03;;;;;;;10.67;56.07;95063.50;4997940;28;20282;-67
2023/10/16 04:19:28;;;;;;;4.50;4.20;;;;;;;10.67;56.23;95065.44;4997348;28;20678;-67
2023/10/16 04:21:50;;;;;;;4.63;4.30;;;;;;;10.68;56.01;95078.91;4997750;28;20211;-67
2023/10/16 04:24:40;;;;;;;4.60;4.25;;;;;;;10.69;56.00;95091.53;4997143;28;20203;-67
2023/10/16 04:33:02;;;;;;;4.40;4.10;;;;;;;10.74;55.59;95123.56;4996803;28;20206;-67
2023/10/16 04:35:29;;;;;;;4.13;3.83;;;;;;;10.77;55.62;95120.91;4997678;28;20223;-67
2023/10/16 04:38:27;;;;;;;4.68;4.28;;;;;;;10.79;55.49;95118.59;4996722;28;20612;-67
2023/10/16 04:43:51;;;;;;;4.40;4.00;;;;;;;10.71;55.37;95138.06;4996672;28;20666;-67
2023/10/16 04:46:20;;;;;;;4.40;4.10;;;;;;;10.74;55.37;95140.13;4997667;28;20208;-67
2023/10/16 04:48:51;;;;;;;4.55;3.90;;;;;;;10.70;55.27;95137.25;4997847;28;20184;-67
2023/10/16 04:51:22;;;;;;;4.03;3.70;;;;;;;10.73;55.43;95138.53;4997111;28;20204;-67
2023/10/16 04:54:13;;;;;;;4.45;4.15;;;;;;;10.73;55.29;95146.81;4997323;28;20511;-67
2023/10/16 04:57:07;;;;;;;4.57;3.50;;;;;;;10.67;55.22;95148.19;4997013;28;20250;-67
2023/10/16 05:00:00;;;;;;;3.35;3.03;;;;;;;10.63;55.42;95166.59;4997014;28;20202;-67
2023/10/16 05:02:41;;;;;;;4.43;3.75;;;;;;;10.60;55.57;95177.22;4996859;28;20217;-67
2023/10/16 05:08:30;;;;;;;4.07;3.75;;;;;;;10.52;55.33;95191.91;4973564;28;20219;-67
2023/10/16 05:13:54;;;;;;;4.75;3.38;;;;;;;10.53;55.82;95182.50;4996776;28;20305;-66
2023/10/16 05:16:35;;;;;;;3.95;3.65;;;;;;;10.52;55.60;95183.66;4996747;28;20220;-67
2023/10/16 05:19:15;;;;;;;3.95;3.65;;;;;;;10.56;55.60;95179.03;4996585;28;20765;-67
2023/10/16 06:14:16;;;;;;;5.43;3.55;;;;;;;10.63;55.15;95283.25;4996413;28;20674;-66
2023/10/16 06:16:47;;;;;;;3.30;3.00;;;;;;;10.60;54.44;95293.03;4996245;28;20187;-67
2023/10/16 06:19:17;;;;;;;3.10;2.83;;;;;;;10.54;54.12;95291.66;4995256;28;20200;-67
2023/10/16 06:21:47;;;;;;;3.05;2.85;;;;;;;10.54;54.71;95285.34;4995690;28;20202;-66
2023/10/16 06:24:28;;;;;;;3.40;3.10;;;;;;;10.52;55.29;95293.97;4995871;28;20227;-67
2023/10/16 06:26:57;;;;;;;5.43;3.00;;;;;;;10.51;53.55;95306.16;4995815;28;20187;-66
2023/10/16 06:29:34;;;;;;;3.42;3.03;;;;;;;10.48;54.39;95298.56;4995691;28;20191;-66
2023/10/16 06:32:07;;;;;;;3.58;3.28;;;;;;;10.50;54.70;95304.53;4995730;28;20630;-67
2023/10/16 06:34:34;;;;;;;3.13;2.92;;;;;;;10.47;53.85;95310.75;4996240;28;20234;-67
2023/10/16 06:37:05;;;;;;;3.65;3.35;;;;;;;10.48;54.17;95304.06;4996162;28;20180;-70
2023/10/16 06:39:35;;;;;;;7.07;4.10;;;;;;;10.54;54.35;95296.38;4995773;28;20199;-67
2023/10/16 06:42:04;;;;;;;4.45;3.42;;;;;;;10.60;53.47;95308.75;4994902;28;20223;-71
2023/10/16 06:44:34;;;;;;;3.65;2.90;;;;;;;10.63;54.30;95304.53;4995585;28;20298;-67
2023/10/16 06:47:05;;;;;;;5.57;3.60;;;;;;;10.64;54.42;95292.31;4995941;28;20184;-67
2023/10/16 06:49:37;;;;;;;4.82;3.47;;;;;;;10.66;54.33;95304.63;4995997;28;20286;-67
2023/10/16 06:52:05;;;;;;;4.53;3.33;;;;;;;10.66;54.17;95318.41;4995485;28;20203;-67
2023/10/16 06:54:32;;;;;;;3.30;3.00;;;;;;;10.58;53.27;95313.84;4995526;28;20195;-67
2023/10/16 06:57:10;;;;;;;3.63;2.95;;;;;;;10.59;54.51;95318.19;4994704;28;20235;-67
2023/10/16 06:59:37;;;;;;;4.53;3.45;;;;;;;10.61;54.83;95326.94;4995245;28;20290;-67
2023/10/16 07:02:06;;;;;;;4.38;3.00;;;;;;;10.58;53.70;95322.91;4995917;28;20187;-67
2023/10/16 07:04:33;;;;;;;4.75;3.20;;;;;;;10.54;53.71;95322.00;4994857;28;20302;-67
2023/10/16 07:06:59;;;;;;;3.42;2.80;;;;;;;10.51;53.66;95335.69;4978790;28;20196;-67
2023/10/16 07:09:37;;;;;;;6.10;3.65;;;;;;;10.56;53.77;95327.97;4995082;28;20533;-67
2023/10/16 07:12:06;;;;;;;3.92;3.05;;;;;;;10.61;54.15;95326.94;4994913;28;20200;-66
2023/10/16 07:14:33;;;;;;;4.35;3.38;;;;;;;10.72;53.34;95324.50;4995479;28;20310;-66
2023/10/16 07:17:02;;;;;;;3.78;2.97;;;;;;;10.78;52.68;95312.06;4995283;28;20196;-66
2023/10/16 07:19:31;;;;;;;2.58;2.38;;;;;;;10.87;52.29;95318.28;4995863;28;20207;-66
2023/10/16 07:22:00;;;;;;;2.80;2.60;;;;;;;10.90;53.98;95314.81;4994799;28;20200;-67
2023/10/16 07:24:28;;;;;;;2.60;2.40;;;;;;;10.90;52.02;95317.56;4995362;28;20214;-67
2023/10/16 07:27:00;;;;;;;2.65;2.45;;;;;;;10.91;54.07;95315.63;4995706;28;20188;-67
2023/10/16 07:29:29;;;;;;;2.60;2.40;;;;;;;10.97;54.45;95320.56;4994248;28;20204;-67
2023/10/16 07:31:56;;;;;;;3.67;2.70;;;;;;;11.05;52.59;95322.34;4995397;28;20711;-67
2023/10/16 07:34:24;;;;;;;4.30;2.85;;;;;;;11.18;52.62;95312.06;4994796;28;20282;-67
2023/10/16 07:36:55;;;;;;;2.50;2.30;;;;;;;11.25;52.61;95323.31;4994704;28;20220;-67
2023/10/16 07:39:21;;;;;;;3.17;2.58;;;;;;;11.30;52.15;95325.84;4994414;28;20200;-67
2023/10/16 07:41:47;;;;;;;2.40;2.20;;;;;;;11.32;52.17;95319.97;4995311;28;20204;-67
2023/10/16 07:44:14;;;;;;;2.80;2.45;;;;;;;11.37;51.02;95318.94;4995336;28;20266;-67
2023/10/16 07:46:44;;;;;;;3.83;2.42;;;;;;;11.46;51.32;95331.41;4994179;28;20224;-67
2023/10/16 07:49:13;;;;;;;3.63;2.40;;;;;;;11.53;50.18;95337.13;4995627;28;20192;-67
2023/10/16 07:51:45;;;;;;;4.50;2.95;;;;;;;11.67;51.08;95324.88;4994101;28;20628;-67
2023/10/16 07:54:14;;;;;;;3.50;3.10;;;;;;;11.75;50.42;95330.22;4997618;28;20291;-67
2023/10/16 07:56:41;;;;;;;7.20;3.67;;;;;;;11.86;49.60;95322.25;4997763;28;20239;-67
2023/10/16 07:59:08;;;;;;;3.47;2.72;;;;;;;11.94;49.02;95318.50;4998633;28;20279;-67
2023/10/16 08:01:48;;;;;;;3.20;2.60;;;;;;;11.95;48.86;95311.84;4998450;28;20227;-67
2023/10/16 08:04:43;;;;;;;4.60;2.70;;;;;;;12.01;49.41;95309.59;4997744;28;20596;-67
2023/10/16 08:07:46;;;;;;;3.97;2.88;;;;;;;12.07;49.50;95305.41;4997508;28;20593;-67
2023/10/16 08:10:41;;;;;;;2.85;2.55;;;;;;;12.19;49.15;95312.81;4998352;28;20215;-67
2023/10/16 08:13:12;;;;;;;3.83;3.10;;;;;;;12.34;48.23;95303.69;4998826;28;20200;-67
2023/10/16 08:15:44;;;;;;;3.35;2.78;;;;;;;12.37;45.98;95308.50;4997205;28;20239;-67
2023/10/16 08:18:13;;;;;;;3.72;3.00;;;;;;;12.45;47.20;95303.94;4998456;28;20188;-67
2023/10/16 08:21:05;;;;;;;3.90;3.15;;;;;;;12.55;46.20;95308.94;4997933;28;20203;-67
2023/10/16 08:23:35;;;;;;;5.28;3.60;;;;;;;12.61;46.43;95301.16;4997770;28;20195;-67
2023/10/16 08:26:14;;;;;;;3.53;2.65;;;;;;;12.66;45.77;95307.22;4998214;28;20275;-67
2023/10/16 08:28:45;;;;;;;3.42;2.50;;;;;;;12.74;46.48;95313.72;4997196;28;20615;-67
2023/10/16 08:31:23;;;;;;;4.07;3.17;;;;;;;12.82;45.66;95314.66;4997817;28;20200;-71
2023/10/16 08:33:51;;;;;;;2.90;2.60;;;;;;;12.91;45.57;95316.09;4998153;28;20188;-66
2023/10/16 08:36:19;;;;;;;3.67;2.40;;;;;;;13.04;44.57;95305.69;4997994;28;20615;-67
2023/10/16 08:38:53;;;;;;;3.55;2.58;;;;;;;13.15;43.87;95315.03;4997817;28;20238;-67
2023/10/16 08:41:38;;;;;;;3.78;2.60;;;;;;;13.23;44.13;95316.81;4997957;28;20235;-67
2023/10/16 08:44:06;;;;;;;3.42;2.13;;;;;;;13.27;44.04;95316.88;4996873;28;20642;-67
2023/10/16 08:46:34;;;;;;;3.92;2.88;;;;;;;13.34;42.98;95314.25;4997167;28;20204;-68
2023/10/16 08:49:03;;;;;;;4.20;3.50;;;;;;;13.33;43.73;95315.44;4998116;28;20191;-67
2023/10/16 08:51:30;;;;;;;3.63;3.33;;;;;;;13.32;43.43;95310.25;4997754;28;20188;-67
2023/10/16 08:54:02;;;;;;;2.97;2.75;;;;;;;13.46;43.08;95311.31;4997674;28;20259;-67
2023/10/16 08:56:31;;;;;;;3.15;2.95;;;;;;;13.59;42.50;95316.72;5006099;28;20234;-67
2023/10/16 08:58:58;;;;;;;3.03;2.80;;;;;;;13.66;42.57;95314.91;4999709;28;20297;-67
2023/10/16 09:01:28;;;;;;;4.53;2.45;;;;;;;13.75;41.90;95309.09;4999583;28;20202;-67
2023/10/16 09:04:01;;;;;;;2.80;2.50;;;;;;;13.87;41.54;95327.53;4999942;28;20207;-67
2023/10/16 09:06:32;;;;;;;3.58;2.20;;;;;;;13.91;41.27;95311.78;4999839;28;20285;-67
2023/10/16 09:09:00;;;;;;;3.25;2.22;;;;;;;13.90;41.02;95321.25;5016692;28;20180;-67
2023/10/16 09:11:29;;;;;;;2.38;2.05;;;;;;;13.95;41.60;95323.75;4999752;28;20203;-67
2023/10/16 09:13:59;;;;;;;2.08;1.90;;;;;;;13.97;40.64;95304.75;4999964;28;20656;-68
2023/10/16 09:16:30;;;;;;;2.95;2.25;;;;;;;14.08;41.17;95307.72;4999911;28;20215;-67
2023/10/16 09:18:58;;;;;;;2.40;2.20;;;;;;;14.16;39.99;95307.50;5016508;28;20210;-67
2023/10/16 09:21:28;;;;;;;2.83;2.20;;;;;;;14.20;40.70;95313.91;5000152;28;20524;-67
2023/10/16 09:23:58;;;;;;;2.78;2.10;;;;;;;14.28;39.44;95300.94;5016378;28;20658;-67
2023/10/16 09:26:28;;;;;;;2.80;2.10;;;;;;;14.29;38.97;95302.53;4999478;28;20502;-67
2023/10/16 09:29:04;;;;;;;2.10;1.80;;;;;;;14.31;39.40;95305.75;5016912;28;20183;-67
2023/10/16 09:31:32;;;;;;;4.00;2.95;;;;;;;14.37;38.62;95301.47;4999226;28;20195;-67
2023/10/16 09:34:00;;;;;;;2.83;2.50;;;;;;;14.38;39.21;95299.53;5016234;28;20257;-67
2023/10/16 09:36:29;;;;;;;3.20;2.83;;;;;;;14.39;38.62;95307.47;5016140;28;20732;-67
2023/10/16 09:39:01;;;;;;;2.10;2.00;;;;;;;14.46;38.98;95298.47;4999282;28;20195;-67
2023/10/16 09:41:38;;;;;;;3.17;2.50;;;;;;;14.44;38.78;95290.50;5016445;28;20318;-67
2023/10/16 09:44:09;;;;;;;3.47;2.65;;;;;;;14.41;38.04;95284.88;5016347;28;20511;-67
2023/10/16 09:49:21;;;;;;;3.05;2.08;;;;;;;14.48;39.06;95285.00;4996530;28;20203;-67
2023/10/16 09:51:50;;;;;;;2.22;2.03;;;;;;;14.50;38.70;95282.69;4999820;28;20309;-67
2023/10/16 09:54:18;;;;;;;3.75;2.80;;;;;;;14.52;38.85;95287.84;4998970;28;20649;-67
2023/10/16 09:56:48;;;;;;;3.78;2.78;;;;;;;14.58;38.85;95278.03;4995531;28;20240;-67
2023/10/16 09:59:23;;;;;;;3.65;2.17;;;;;;;14.56;37.38;95272.88;4996460;28;20206;-67
2023/10/16 10:01:51;;;;;;;3.83;2.08;;;;;;;14.56;38.00;95281.22;4996466;28;20184;-67
2023/10/16 10:04:19;;;;;;;2.50;2.10;;;;;;;14.46;37.18;95279.03;4996968;28;20211;-67
2023/10/16 10:06:48;;;;;;;2.10;2.00;;;;;;;14.50;37.64;95266.03;4995247;28;20295;-67
2023/10/16 10:09:22;;;;;;;2.00;1.80;;;;;;;14.53;38.20;95261.72;4996049;28;20303;-67
2023/10/16 10:12:04;;;;;;;3.22;2.22;;;;;;;14.66;37.94;95266.66;4995668;28;20202;-67
2023/10/16 10:14:40;;;;;;;2.30;2.08;;;;;;;14.76;37.19;95259.69;4996274;28;20231;-67
2023/10/16 10:17:10;;;;;;;3.13;2.22;;;;;;;14.85;38.25;95254.66;4995729;28;20214;-67
2023/10/16 10:19:39;;;;;;;2.35;1.95;;;;;;;14.90;37.43;95261.84;4995554;28;20203;-67
2023/10/16 10:22:16;;;;;;;2.05;1.90;;;;;;;15.02;36.68;95258.03;4996455;28;20195;-67
2023/10/16 10:24:51;;;;;;;2.67;1.90;;;;;;;15.09;36.23;95258.13;4996119;28;20603;-67
2023/10/16 10:27:18;;;;;;;2.58;1.92;;;;;;;15.20;36.51;95255.50;4995800;28;20195;-67
2023/10/16 10:29:49;;;;;;;3.03;1.80;;;;;;;15.22;36.24;95253.16;4995280;28;20262;-67
2023/10/16 10:32:17;;;;;;;2.00;1.85;;;;;;;15.12;35.63;95240.72;4995704;28;20194;-67
2023/10/16 10:34:47;;;;;;;2.25;1.90;;;;;;;15.06;35.64;95245.78;4995981;28;20191;-67
2023/10/16 10:37:44;;;;;;;2.05;1.80;;;;;;;15.16;36.77;95234.00;4996171;28;20588;-67
2023/10/16 10:40:21;;;;;;;2.63;1.90;;;;;;;15.28;36.54;95232.97;4963237;28;20211;-67
2023/10/16 10:42:53;;;;;;;2.60;1.88;;;;;;;15.35;36.50;95218.34;4995223;28;20293;-67
2023/10/16 10:45:35;;;;;;;2.30;1.80;;;;;;;15.41;35.97;95220.41;4995547;28;20228;-67
2023/10/16 10:48:09;;;;;;;1.98;1.73;;;;;;;15.38;35.78;95220.38;4994983;28;20210;-67
2023/10/16 10:50:39;;;;;;;3.15;2.00;;;;;;;15.44;35.44;95215.28;4995888;28;20214;-67
2023/10/16 10:53:16;;;;;;;2.03;1.92;;;;;;;15.36;35.53;95217.19;4995845;28;20195;-67
2023/10/16 10:55:54;;;;;;;2.85;2.03;;;;;;;15.37;35.33;95213.22;4997574;28;20518;-67
2023/10/16 10:58:23;;;;;;;1.92;1.83;;;;;;;15.44;35.58;95204.97;4998148;28;20202;-67
2023/10/16 11:01:15;;;;;;;2.33;1.52;;;;;;;15.48;34.04;95205.00;5015056;28;20188;-67
2023/10/16 11:03:45;;;;;;;1.90;1.80;;;;;;;15.49;35.13;95204.59;4998247;28;20207;-67
2023/10/16 11:06:18;;;;;;;2.85;1.70;;;;;;;15.52;34.86;95194.72;5014952;28;20527;-67
2023/10/16 11:08:48;;;;;;;2.90;2.10;;;;;;;15.54;35.36;95195.13;4998089;28;20681;-67
2023/10/16 11:11:16;;;;;;;2.35;1.90;;;;;;;15.58;35.37;95195.97;4998040;28;20599;-66
2023/10/16 11:13:47;;;;;;;2.10;1.75;;;;;;;15.67;34.54;95202.03;5015282;28;20195;-67
2023/10/16 11:16:16;;;;;;;2.13;1.80;;;;;;;15.79;35.41;95200.94;5014799;28;20211;-67
2023/10/16 11:19:00;;;;;;;2.47;2.10;;;;;;;15.92;35.15;95201.47;5015521;28;20512;-67
2023/10/16 11:21:30;;;;;;;2.85;1.90;;;;;;;15.97;34.80;95189.97;5015123;28;20519;-67
2023/10/16 11:24:00;;;;;;;1.83;1.60;;;;;;;15.98;34.31;95189.63;4998064;28;20522;-67
2023/10/16 11:26:28;;;;;;;1.77;1.67;;;;;;;15.88;33.69;95195.88;4999314;28;20199;-67
2023/10/16 11:28:56;;;;;;;2.22;2.03;;;;;;;15.91;33.94;95183.19;5018889;28;20187;-67
2023/10/16 11:31:25;;;;;;;2.38;1.77;;;;;;;15.90;34.40;95185.16;5002515;28;20207;-67
2023/10/16 11:34:02;;;;;;;2.25;2.10;;;;;;;15.98;34.13;95180.47;5001644;28;20191;-67
2023/10/16 11:36:34;;;;;;;1.98;1.88;;;;;;;16.03;33.41;95180.09;5018400;28;20219;-67
2023/10/16 11:39:01;;;;;;;2.22;2.03;;;;;;;16.07;33.89;95175.38;5018629;28;20253;-67
2023/10/16 11:41:32;;;;;;;1.95;1.75;;;;;;;16.05;33.40;95172.16;5001709;28;20282;-67
2023/10/16 11:44:01;;;;;;;1.95;1.70;;;;;;;16.10;33.54;95172.63;5018319;28;20198;-67
2023/10/16 11:46:31;;;;;;;2.85;1.73;;;;;;;16.14;33.53;95181.00;5000969;28;20654;-67
2023/10/16 11:49:17;;;;;;;2.10;1.90;;;;;;;16.16;33.34;95177.81;5018240;28;20661;-67
2023/10/16 11:51:46;;;;;;;2.22;2.10;;;;;;;16.20;32.74;95181.44;5001733;28;20198;-67
2023/10/16 11:54:20;;;;;;;1.95;1.73;;;;;;;16.18;33.54;95178.22;5001228;28;20194;-67
2023/10/16 11:56:48;;;;;;;2.40;1.90;;;;;;;16.21;33.02;95177.47;5000862;28;20234;-67
2023/10/16 11:59:15;;;;;;;2.00;1.75;;;;;;;16.20;33.08;95167.53;5001256;28;20285;-67
2023/10/16 12:01:45;;;;;;;2.42;1.63;;;;;;;16.23;33.16;95166.72;5018585;28;20187;-67
2023/10/16 12:04:16;;;;;;;1.98;1.83;;;;;;;16.24;33.02;95160.78;5018209;28;20202;-67
2023/10/16 12:06:44;;;;;;;3.08;1.92;;;;;;;16.28;33.11;95158.81;5001516;28;20191;-67
2023/10/16 12:09:13;;;;;;;2.25;1.67;;;;;;;16.27;32.71;95148.09;5001180;28;20207;-67
2023/10/16 12:11:42;;;;;;;2.00;1.80;;;;;;;16.32;33.10;95159.66;5000726;28;20199;-67
2023/10/16 12:14:13;;;;;;;3.00;2.00;;;;;;;16.37;33.06;95159.28;5000533;28;20234;-67
2023/10/16 12:16:44;;;;;;;2.95;1.80;;;;;;;16.40;32.23;95162.47;5017684;28;20242;-67
2023/10/16 12:19:14;;;;;;;3.72;1.70;;;;;;;16.34;32.55;95151.72;5017959;28;20239;-67
2023/10/16 12:21:41;;;;;;;1.70;1.60;;;;;;;16.35;31.99;95147.75;5000696;28;20253;-67
2023/10/16 12:24:09;;;;;;;2.30;2.10;;;;;;;16.34;32.03;95150.94;5000871;28;20234;-67
2023/10/16 12:26:41;;;;;;;1.70;1.60;;;;;;;16.37;31.89;95145.34;5017575;28;20191;-67
2023/10/16 12:29:08;;;;;;;2.50;1.90;;;;;;;16.44;32.79;95143.81;5017769;28;20187;-67
2023/10/16 12:31:39;;;;;;;1.73;1.63;;;;;;;16.52;31.74;95151.84;5017755;28;20188;-67
2023/10/16 12:34:10;;;;;;;2.72;1.90;;;;;;;16.53;31.45;95150.63;5000733;28;20504;-67
2023/10/16 12:36:42;;;;;;;2.67;1.80;;;;;;;16.55;31.22;95137.09;5000871;28;20219;-67
2023/10/16 12:39:16;;;;;;;2.90;1.98;;;;;;;16.60;32.13;95133.16;5016715;28;20184;-67
2023/10/16 12:41:43;;;;;;;1.92;1.75;;;;;;;16.60;32.06;95128.41;5000337;28;20210;-67
2023/10/16 12:44:11;;;;;;;2.58;1.70;;;;;;;16.58;31.91;95125.19;5017184;28;20512;-67
2023/10/16 12:46:38;;;;;;;3.05;1.98;;;;;;;16.60;31.56;95130.38;4999964;28;20285;-67
2023/10/16 12:49:07;;;;;;;2.08;1.55;;;;;;;16.50;30.53;95118.00;5017109;28;20183;-67
2023/10/16 12:51:35;;;;;;;1.95;1.80;;;;;;;16.47;31.26;95124.34;5000938;28;20195;-67
2023/10/16 12:54:03;;;;;;;1.90;1.77;;;;;;;16.51;30.63;95124.38;5017295;28;20179;-66
2023/10/16 12:56:31;;;;;;;1.60;1.50;;;;;;;16.52;30.74;95124.00;5000506;28;20242;-67
2023/10/16 12:58:58;;;;;;;2.40;1.60;;;;;;;16.61;31.04;95121.63;5000383;28;20257;-67
2023/10/16 13:01:25;;;;;;;1.92;1.67;;;;;;;16.69;30.53;95125.25;5017172;28;20277;-67
2023/10/16 13:03:53;;;;;;;1.73;1.63;;;;;;;16.74;30.70;95119.34;5000440;28;20206;-67